Data for 08/22/2016

Time Sea-Level Adjusted Pressure Absolute Pressure Temperature Relative Humidity Dew Point   
(mb) (inHg) (mb) (inHg) (C) (F) (%) (C) (F)
00:05 1013 29.91 842 24.86 16.9 62.5 29 -1 30.1
00:10 1013 29.91 842 24.86 17.4 63.2 31 -0 32
00:15 1013 29.91 843 24.89 17.5 63.6 27 -1.3 29.6
00:20 1013 29.91 842 24.86 17.3 63.2 28 -1.2 29.8
00:25 1013 29.91 842 24.86 17.2 62.9 29 -0.8 30.6
00:30 1013 29.91 843 24.89 16.7 62.1 30 -0.9 30.4
00:35 1013 29.91 843 24.89 16.5 61.6 31 -0.6 30.9
00:40 1013 29.91 842 24.86 16.1 60.9 32 -0.4 31.2
00:45 1013 29.91 842 24.86 15.7 60.3 33 -0.2 31.6
00:50 1013 29.91 842 24.86 15.5 59.9 33 -0.6 30.8
00:55 1013 29.91 842 24.86 15.7 60.3 33 -0.6 30.9
01:00 1013 29.91 842 24.86 16.1 61 32 -0.6 30.9
01:05 1013 29.91 842 24.86 15.9 60.6 33 -0.2 31.6
01:10 1013 29.91 842 24.86 15.7 60.2 30 -1.7 29
01:15 1013 29.91 842 24.86 16.4 61.4 31 -0.7 30.7
01:20 1013 29.91 842 24.86 16 60.8 32 -0.4 31.3
01:25 1013 29.91 842 24.86 15.7 60.2 31 -1.2 29.9
01:30 1013 29.91 842 24.86 15.7 60.3 34 -0.1 31.8
01:35 1013 29.91 842 24.86 15.2 59.4 34 -0.5 31.2
01:40 1013 29.91 842 24.86 15.3 59.5 34 -0.3 31.4
01:45 1013 29.91 842 24.86 15.4 59.6 34 -0.3 31.5
01:50 1013 29.91 842 24.86 15.3 59.6 35 -0.1 31.8
01:55 1013 29.91 842 24.86 15.2 59.4 34 -0.4 31.3
02:00 1013 29.91 842 24.86 15.2 59.4 35 -0.2 31.6
02:05 1013 29.91 842 24.86 15.2 59.3 34 -0.4 31.3
02:10 1013 29.91 842 24.86 14.9 58.8 35 -0.3 31.4
02:15 1013 29.91 842 24.86 14.6 58.2 37 0.3 32.5
02:20 1013 29.91 842 24.86 14.1 57.4 37 -0.2 31.6
02:25 1013 29.91 842 24.86 14.1 57.3 37 -0.3 31.4
02:30 1013 29.91 842 24.86 14.4 58 34 -1 30.3
02:35 1013 29.91 842 24.86 15 58.9 33 -1.1 29.9
02:40 1013 29.91 842 24.86 15.5 59.9 31 -1.5 29.4
02:45 1013 29.91 843 24.89 15.8 60.4 31 -1.3 29.7
02:50 1013 29.91 843 24.89 15.8 60.4 31 -1.4 29.5
02:55 1013 29.91 843 24.89 15.7 60.3 33 -0.4 31.3
03:00 1013 29.91 843 24.89 15 59 34 -0.7 30.7
03:05 1013 29.91 843 24.89 14.7 58.4 36 -0.1 31.8
03:10 1013 29.91 843 24.89 14.4 57.8 37 0 32
03:15 1013 29.91 843 24.89 14.1 57.3 35 -1 30.2
03:20 1013 29.91 843 24.89 14.5 58 35 -0.8 30.6
03:25 1013 29.91 843 24.89 14.6 58.3 34 -1.1 30.1
03:30 1013 29.91 843 24.89 14.4 58 34 -1.1 30
03:35 1013 29.91 843 24.89 14.7 58.4 33 -1.3 29.7
03:40 1013 29.91 843 24.89 14.6 58.2 34 -1.2 29.9
03:45 1013 29.91 843 24.89 14.3 57.7 35 -1.1 30
03:50 1013 29.91 843 24.89 14.1 57.3 36 -0.8 30.6
03:55 1013 29.91 843 24.89 14 57.1 35 -1 30.2
04:00 1013 29.91 843 24.89 14.3 57.7 34 -1.3 29.7
04:05 1013 29.91 843 24.89 14 57.1 34 -1.4 29.5
04:10 1013 29.91 843 24.89 14.3 57.7 35 -0.9 30.3
04:15 1013 29.91 843 24.89 13.6 56.6 38 -0.2 31.7
04:20 1013 29.91 843 24.89 13.2 55.7 38 -0.7 30.7
04:25 1013 29.91 843 24.89 13.3 56 38 -0.8 30.6
04:30 1013 29.91 843 24.89 13.4 56.2 37 -1 30.3
04:35 1013 29.91 843 24.89 13.5 56.3 37 -0.9 30.4
04:40 1013 29.91 843 24.89 13.5 56.2 37 -0.8 30.6
04:45 1013 29.91 843 24.89 13.4 56.2 36 -1.3 29.7
04:50 1013 29.91 843 24.89 13.5 56.3 36 -1.1 30.1
04:55 1013 29.91 843 24.89 13.6 56.5 36 -1.3 29.7
05:00 1014 29.94 843 24.89 13.5 56.2 36 -1.4 29.5
05:05 1014 29.94 843 24.89 13.7 56.6 34 -2 28.4
05:10 1014 29.94 843 24.89 14.1 57.4 32 -2.3 27.9
05:15 1013 29.91 843 24.89 14.3 57.8 31 -2.5 27.5
05:20 1013 29.91 843 24.89 14.8 58.6 31 -2.3 27.8
05:25 1014 29.94 843 24.89 14.8 58.6 31 -2 28.4
05:30 1014 29.94 843 24.89 14.4 57.9 32 -2 28.5
05:35 1014 29.94 843 24.89 14.2 57.5 33 -1.8 28.8
05:40 1014 29.94 843 24.89 13.9 57 34 -1.7 28.9
05:45 1014 29.94 843 24.89 13.6 56.6 35 -1.4 29.4
05:50 1014 29.94 843 24.89 13.4 56.2 35 -1.7 29
05:55 1014 29.94 843 24.89 13.4 56.1 37 -0.9 30.4
06:00 1014 29.94 843 24.89 13.3 55.9 36 -1.3 29.6
06:05 1014 29.94 843 24.89 13.3 55.9 38 -0.7 30.8
06:10 1014 29.94 843 24.89 13.1 55.6 37 -1.1 30
06:15 1014 29.94 843 24.89 13.1 55.6 36 -1.5 29.3
06:20 1014 29.94 843 24.89 13.3 56 34 -2.1 28.3
06:25 1014 29.94 843 24.89 14 57.1 32 -2.4 27.7
06:30 1014 29.94 843 24.89 14.4 57.9 30 -2.7 27.1
06:35 1014 29.94 843 24.89 15.2 59.3 28 -3 26.5
06:40 1014 29.94 843 24.89 15.4 59.8 31 -1.3 29.6
06:45 1014 29.94 843 24.89 14.8 58.6 33 -1.2 29.9
06:50 1014 29.94 843 24.89 14.3 57.8 37 0 32.1
06:55 1014 29.94 843 24.89 14.1 57.3 39 0.3 32.5
07:00 1014 29.94 843 24.89 14.1 57.4 39 0.4 32.8
07:05 1014 29.94 843 24.89 14.1 57.3 40 0.9 33.6
07:10 1014 29.94 843 24.89 14.1 57.4 41 1.2 34.2
07:15 1014 29.94 843 24.89 14.3 57.8 39 0.8 33.4
07:20 1014 29.94 843 24.89 14.7 58.5 38 0.6 33.1
07:25 1014 29.94 843 24.89 15.4 59.8 35 0.2 32.4
07:30 1014 29.94 843 24.89 15.9 60.7 35 0.8 33.4
07:35 1014 29.94 843 24.89 16.5 61.7 33 0.2 32.3
07:40 1014 29.94 843 24.89 17.2 62.9 35 1.8 35.3
07:45 1014 29.94 843 24.89 17.4 63.4 37 2.7 36.8
07:50 1014 29.94 843 24.89 17.8 64 33 1.4 34.6
07:55 1014 29.94 843 24.89 18.3 64.9 32 1.3 34.3
08:00 1014 29.94 843 24.89 18.3 65 31 1.2 34.2
08:05 1014 29.94 843 24.89 18.3 65 32 1.3 34.4
08:10 1014 29.94 843 24.89 18.3 64.9 30 0.6 33
08:15 1014 29.94 843 24.89 18.2 64.8 30 0.5 32.9
08:20 1014 29.94 843 24.89 19 66.3 28 0.2 32.4
08:25 1014 29.94 843 24.89 19.5 67.1 27 0.3 32.6
08:30 1014 29.94 843 24.89 20 67.9 27 0.5 32.9
08:35 1014 29.94 843 24.89 20.5 68.9 23 -1 30.1
08:40 1014 29.94 843 24.89 20.9 69.6 24 -0.3 31.5
08:45 1014 29.94 843 24.89 21.7 71.1 21 -1.5 29.3
08:50 1014 29.94 843 24.89 22.1 71.8 20 -1.7 28.9
08:55 1014 29.94 843 24.89 22.2 71.9 20 -1.5 29.4
09:00 1014 29.94 843 24.89 22.8 73 20 -1.1 30
09:05 1014 29.94 843 24.89 22.7 72.8 21 -0.7 30.7
09:10 1014 29.94 843 24.89 22.8 73 20 -1.4 29.5
09:15 1014 29.94 843 24.89 22.1 71.8 19 -2.6 27.3
09:20 1014 29.94 843 24.89 22.7 72.8 20 -0.9 30.3
09:25 1014 29.94 843 24.89 23.5 74.3 21 -0.2 31.7
09:30 1014 29.94 843 24.89 23.8 74.8 21 0.4 32.7
09:35 1014 29.94 843 24.89 23.7 74.7 21 0.1 32.2
09:40 1014 29.94 843 24.89 23.9 75 19 -0.6 30.9
09:45 1014 29.94 843 24.89 23.9 75 20 -0.3 31.4
09:50 1014 29.94 843 24.89 23.3 74 22 0.5 32.8
09:55 1014 29.94 843 24.89 23.9 74.9 20 -0 31.9
10:00 1014 29.94 843 24.89 23.6 74.4 22 0.8 33.5
10:05 1014 29.94 843 24.89 23.1 73.6 24 1.7 35.1
10:10 1014 29.94 843 24.89 23.2 73.7 22 0.5 32.9
10:15 1014 29.94 843 24.89 23.7 74.6 20 -0.7 30.8
10:20 1013 29.91 843 24.89 23.7 74.7 18 -1.6 29.2
10:25 1013 29.91 843 24.89 23.9 74.9 18 -1.5 29.3
10:30 1013 29.91 843 24.89 23.6 74.5 19 -0.9 30.4
10:35 1013 29.91 843 24.89 24.1 75.4 18 -1.7 29
10:40 1013 29.91 843 24.89 24.5 76 17 -2.1 28.3
10:45 1013 29.91 842 24.86 24.6 76.2 17 -2 28.4
10:50 1013 29.91 842 24.86 25.3 77.5 16 -2.4 27.7
10:55 1013 29.91 842 24.86 25.5 77.9 16 -1.9 28.5
11:00 1013 29.91 842 24.86 25.9 78.5 14 -3.1 26.5
11:05 1013 29.91 842 24.86 25.3 77.5 15 -3 26.5
11:10 1013 29.91 842 24.86 25.8 78.5 15 -2.7 27.1
11:15 1013 29.91 842 24.86 25.6 78.1 15 -2.7 27.1
11:20 1013 29.91 842 24.86 25.3 77.6 15 -3 26.6
11:25 1013 29.91 842 24.86 25.8 78.4 14 -3.4 25.9
11:30 1013 29.91 842 24.86 26.1 78.9 14 -2.9 26.8
11:35 1013 29.91 842 24.86 25.9 78.6 15 -2.7 27.1
11:40 1013 29.91 842 24.86 26.1 79 14 -3.1 26.4
11:45 1013 29.91 842 24.86 26.3 79.3 15 -2.5 27.5
11:50 1013 29.91 842 24.86 26.6 79.9 15 -2 28.5
11:55 1013 29.91 842 24.86 26.7 80 14 -2.7 27.1
12:00 1013 29.91 842 24.86 26 78.9 14 -3.2 26.3
12:05 1013 29.91 842 24.86 26.2 79.2 13 -3.9 25.1
12:10 1013 29.91 842 24.86 26.9 80.4 13 -3.3 26.1
12:15 1013 29.91 842 24.86 26.5 79.6 14 -2.9 26.7
12:20 1013 29.91 842 24.86 27 80.5 14 -2.5 27.6
12:25 1012 29.88 842 24.86 27.2 81 13 -3.1 26.5
12:30 1012 29.88 842 24.86 27.4 81.3 13 -3.7 25.4
12:35 1012 29.88 842 24.86 26.4 79.5 13 -4.1 24.5
12:40 1012 29.88 842 24.86 26.6 79.8 13 -4 24.9
12:45 1012 29.88 841 24.83 26.9 80.5 13 -3.3 26.1
12:50 1012 29.88 841 24.83 27.6 81.6 12 -4.3 24.2
12:55 1012 29.88 841 24.83 27.5 81.6 13 -3.3 26
13:00 1012 29.88 841 24.83 28.5 83.3 13 -2.7 27.2
13:05 1012 29.88 841 24.83 29.1 84.4 11 -4.5 23.9
13:10 1012 29.88 841 24.83 29.2 84.6 11 -3.6 25.6
13:15 1012 29.88 841 24.83 29.1 84.3 11 -4.4 24.1
13:20 1012 29.88 841 24.83 28.9 83.9 12 -3.5 25.7
13:25 1012 29.88 841 24.83 29.1 84.4 12 -3.3 26
13:30 1012 29.88 841 24.83 28.8 83.8 11 -3.9 25
13:35 1012 29.88 841 24.83 29 84.2 12 -3.1 26.4
13:40 1012 29.88 841 24.83 28.5 83.3 12 -3.2 26.2
13:45 1012 29.88 841 24.83 28.3 82.9 12 -3.7 25.4
13:50 1012 29.88 841 24.83 28.2 82.7 12 -3.7 25.4
13:55 1012 29.88 841 24.83 28.6 83.5 11 -4 24.9
14:00 1012 29.88 841 24.83 28.8 83.9 11 -3.9 25
14:05 1012 29.88 841 24.83 28.9 83.9 12 -3.4 25.8
14:10 1012 29.88 841 24.83 27.9 82.3 12 -4.4 24.1
14:15 1012 29.88 841 24.83 27.8 82 12 -4.2 24.4
14:20 1012 29.88 841 24.83 26.7 80 13 -3.9 24.9
14:25 1012 29.88 841 24.83 26.5 79.7 12 -4.5 23.8
14:30 1012 29.88 841 24.83 26.6 79.8 12 -4.8 23.4
14:35 1012 29.88 841 24.83 27 80.6 11 -5.4 22.3
14:40 1012 29.88 841 24.83 26.9 80.5 12 -4.6 23.7
14:45 1012 29.88 841 24.83 27 80.7 12 -4.8 23.3
14:50 1012 29.88 841 24.83 27.8 82.1 11 -4.6 23.7
14:55 1012 29.88 841 24.83 28.4 83.1 10 -5.5 22.2
15:00 1012 29.88 841 24.83 28.6 83.4 11 -4.3 24.2
15:05 1011 29.85 841 24.83 28.8 83.8 11 -3.8 25.1
15:10 1011 29.85 841 24.83 28 82.4 11 -4.7 23.6
15:15 1011 29.85 841 24.83 27.9 82.1 10 -6.5 20.3
15:20 1011 29.85 841 24.83 29.2 84.6 7 -9.9 14.2
15:25 1011 29.85 841 24.83 30.1 86.2 8 -8.1 17.4
15:30 1011 29.85 840 24.81 29.9 85.7 9 -6.6 20.1
15:35 1011 29.85 840 24.81 29.5 85 9 -7.2 19.1
15:40 1011 29.85 840 24.81 29.4 84.8 8 -7.5 18.6
15:45 1011 29.85 840 24.81 29.6 85.2 8 -7.9 17.7
15:50 1011 29.85 840 24.81 29.4 85 8 -7.4 18.7
15:55 1011 29.85 840 24.81 29.5 85.1 8 -8 17.6
16:00 1011 29.85 840 24.81 29.6 85.3 7 -9.3 15.2
16:05 1011 29.85 840 24.81 29.5 85.2 8 -7.5 18.6
16:10 1011 29.85 840 24.81 29.2 84.5 9 -6.3 20.7
16:15 1011 29.85 840 24.81 29.2 84.5 8 -8 17.6
16:20 1011 29.85 840 24.81 29 84.2 8 -7.8 18
16:25 1011 29.85 840 24.81 29.1 84.4 8 -7.6 18.3
16:30 1011 29.85 840 24.81 28.8 83.9 10 -4.9 23.1
16:35 1011 29.85 840 24.81 28.3 83 10 -5.3 22.4
16:40 1011 29.85 840 24.81 28.2 82.7 10 -5.9 21.4
16:45 1011 29.85 840 24.81 28 82.4 10 -5.6 21.9
16:50 1011 29.85 840 24.81 27.8 82 10 -6 21.2
16:55 1011 29.85 840 24.81 27.9 82.2 10 -6.8 19.8
17:00 1011 29.85 840 24.81 27.5 81.5 10 -6.3 20.7
17:05 1011 29.85 840 24.81 27.7 81.9 9 -7.8 18
17:10 1011 29.85 840 24.81 27.6 81.7 10 -6.4 20.5
17:15 1011 29.85 840 24.81 27.5 81.5 10 -6.1 21.1
17:20 1011 29.85 841 24.83 26.7 80 11 -6 21.2
17:25 1011 29.85 841 24.83 26.5 79.6 10 -7.3 18.9
17:30 1011 29.85 841 24.83 26.2 79.2 10 -7.8 17.9
17:35 1011 29.85 841 24.83 26.3 79.3 10 -7.7 18.1
17:40 1011 29.85 841 24.83 26.1 78.9 10 -7.6 18.3
17:45 1012 29.88 841 24.83 25.8 78.4 10 -7.5 18.4
17:50 1012 29.88 841 24.83 25.6 78.1 11 -6.9 19.6
17:55 1012 29.88 841 24.83 25.6 78 11 -7.1 19.2
18:00 1012 29.88 841 24.83 25.2 77.4 12 -6.2 20.8
18:05 1012 29.88 841 24.83 24.8 76.7 11 -7.7 18.1
18:10 1012 29.88 841 24.83 24.5 76.1 11 -7.6 18.4
18:15 1012 29.88 842 24.86 24.2 75.5 11 -8.2 17.3
18:20 1013 29.91 842 24.86 23.9 74.9 11 -8.3 17
18:25 1013 29.91 842 24.86 23.5 74.3 11 -8.6 16.5
18:30 1013 29.91 842 24.86 23.2 73.8 11 -8.6 16.5
18:35 1013 29.91 842 24.86 22.9 73.3 11 -8.8 16.1
18:40 1013 29.91 842 24.86 22.7 72.9 11 -9.1 15.7
18:45 1013 29.91 842 24.86 22.5 72.4 12 -8.7 16.3
18:50 1013 29.91 842 24.86 22.2 72 11 -9.3 15.2
18:55 1013 29.91 843 24.89 22 71.5 12 -8.7 16.4
19:00 1013 29.91 843 24.89 21.7 71.1 12 -8.9 16
19:05 1014 29.94 843 24.89 21.5 70.8 12 -8.7 16.3
19:10 1014 29.94 843 24.89 21.3 70.3 12 -9.3 15.2
19:15 1014 29.94 843 24.89 21 69.8 12 -9.3 15.3
19:20 1014 29.94 843 24.89 20.7 69.2 13 -8.6 16.5
19:25 1014 29.94 843 24.89 20.4 68.6 13 -8.4 16.9
19:30 1014 29.94 843 24.89 20.1 68.2 13 -9.4 15
19:35 1014 29.94 844 24.92 19.9 67.9 12 -9.8 14.4
19:40 1015 29.97 844 24.92 19.8 67.6 13 -9.7 14.6
19:45 1015 29.97 844 24.92 19.7 67.4 13 -9.4 15
19:50 1015 29.97 844 24.92 19.5 67.1 13 -9.5 14.9
19:55 1015 29.97 844 24.92 19.2 66.5 14 -8.6 16.6
20:00 1015 29.97 844 24.92 18.7 65.6 14 -8.9 16
20:05 1015 29.97 844 24.92 18.3 64.9 15 -9.1 15.7
20:10 1015 29.97 844 24.92 18.3 64.9 14 -9.2 15.5
20:15 1015 29.97 844 24.92 18.3 64.9 14 -9.2 15.4
20:20 1015 29.97 844 24.92 18.2 64.7 14 -9.3 15.3
20:25 1015 29.97 845 24.95 18.1 64.6 15 -9.3 15.3
20:30 1015 29.97 845 24.95 18 64.3 14 -9.5 15
20:35 1016 30 845 24.95 17.9 64.2 15 -9.3 15.3
20:40 1016 30 845 24.95 17.7 63.8 16 -8.6 16.4
20:45 1016 30 845 24.95 17.1 62.7 18 -7.6 18.3
20:50 1016 30 845 24.95 16.9 62.3 17 -8.1 17.5
20:55 1016 30 845 24.95 17 62.6 17 -8.4 16.8
21:00 1016 30 845 24.95 17 62.6 16 -8.6 16.6
21:05 1016 30 845 24.95 17.1 62.7 17 -8.3 17.1
21:10 1016 30 845 24.95 17.2 63 16 -8.7 16.4
21:15 1016 30 845 24.95 17.1 62.8 18 -7.6 18.3
21:20 1016 30 845 24.95 16.4 61.6 21 -5.9 21.4
21:25 1016 30 845 24.95 15.4 59.7 22 -6.3 20.6
21:30 1016 30 845 24.95 15.4 59.6 21 -6.6 20.2
21:35 1016 30 845 24.95 15.6 60 19 -7.6 18.3
21:40 1016 30 845 24.95 16.1 60.9 19 -7.6 18.3
21:45 1016 30 845 24.95 16.2 61.1 19 -7.6 18.2
21:50 1016 30 845 24.95 16.2 61.2 18 -7.7 18.1
21:55 1016 30 845 24.95 16.1 61 20 -6.5 20.3
22:00 1016 30 846 24.98 15.7 60.3 19 -7.9 17.7
22:05 1016 30 846 24.98 16 60.7 19 -7.7 18.2
22:10 1016 30 846 24.98 16.1 60.9 18 -7.9 17.7
22:15 1017 30.03 846 24.98 16.2 61.1 19 -7.2 19
22:20 1017 30.03 846 24.98 16 60.9 20 -6.6 20.1
22:25 1017 30.03 846 24.98 15.7 60.3 21 -6.7 20
22:30 1017 30.03 846 24.98 15.5 59.9 22 -6.1 21
22:35 1017 30.03 846 24.98 15.2 59.3 23 -5.9 21.4
22:40 1017 30.03 846 24.98 15 58.9 24 -5.4 22.2
22:45 1017 30.03 846 24.98 14.7 58.4 25 -5.2 22.7
22:50 1017 30.03 846 24.98 14.5 58.1 24 -5.9 21.4
22:55 1017 30.03 846 24.98 14.6 58.3 24 -5.5 22.2
23:00 1017 30.03 846 24.98 14.7 58.5 24 -5.7 21.8
23:05 1017 30.03 846 24.98 14.8 58.6 23 -5.8 21.5
23:10 1017 30.03 846 24.98 14.8 58.6 23 -6 21.3
23:15 1017 30.03 846 24.98 14.9 58.8 22 -6.4 20.4
23:20 1017 30.03 846 24.98 15.1 59.1 24 -5.5 22.1
23:25 1017 30.03 846 24.98 15 59.1 25 -4.9 23.1
23:30 1017 30.03 846 24.98 14.7 58.4 26 -4.5 23.9
23:35 1017 30.03 846 24.98 14.4 57.9 26 -4.6 23.7
23:40 1017 30.03 846 24.98 14.2 57.5 26 -5 23
23:45 1017 30.03 846 24.98 14 57.3 26 -5 23
23:50 1017 30.03 846 24.98 14 57.2 26 -5.4 22.3
23:55 1017 30.03 846 24.98 13.9 57.1 27 -4.9 23.1
24:00 1017 30.03 846 24.98 13.6 56.6 28 -4.6 23.8